Time;durP1;ratioP1;P1;durP2;ratioP2;P2;SDS_P1;SDS_P2;PMS_P1;PMS_P2;Temp;Humidity;BMP_temperature;BMP_pressure;BME280_temperature;BME280_humidity;BME280_pressure;Samples;Min_cycle;Max_cycle;Signal;HPM_P1;HPM_P2
2022/01/28 00:47:47;;;;;;;11.73;3.48;;;;;;;5.89;100.00;98761.97;739460;1153;113691;-73
2022/01/28 01:02:49;;;;;;;10.88;3.70;;;;;;;5.58;100.00;98775.19;740343;1153;114074;-74
2022/01/28 01:18:10;;;;;;;7.03;2.48;;;;;;;5.63;100.00;98757.38;740298;1155;115489;-74
2022/01/28 01:33:14;;;;;;;7.30;2.23;;;;;;;5.42;100.00;98745.36;739584;1155;114599;-74
2022/01/28 02:03:38;;;;;;;2.95;1.30;;;;;;;5.10;100.00;98745.69;740014;1155;113952;-73
2022/01/28 02:18:41;;;;;;;4.43;1.60;;;;;;;4.99;100.00;98764.84;740005;1155;114458;-74
2022/01/28 02:33:43;;;;;;;1.33;1.23;;;;;;;4.91;100.00;98769.88;739607;1153;114638;-74
2022/01/28 02:49:04;;;;;;;2.87;1.93;;;;;;;4.94;100.00;98785.23;739924;1153;114550;-74
2022/01/28 03:04:08;;;;;;;1.50;1.30;;;;;;;4.96;100.00;98796.29;739585;1155;114587;-73
2022/01/28 03:19:14;;;;;;;1.77;1.33;;;;;;;5.09;100.00;98815.03;739602;1155;114661;-74
2022/01/28 03:34:17;;;;;;;2.13;1.60;;;;;;;4.92;100.00;98823.51;739682;1153;114667;-76
2022/01/28 03:49:20;;;;;;;3.03;1.93;;;;;;;5.09;100.00;98850.62;741359;1154;114012;-83
2022/01/28 04:19:35;;;;;;;3.70;1.98;;;;;;;5.07;100.00;98876.75;741834;1153;113831;-81
2022/01/28 04:34:37;;;;;;;2.40;1.80;;;;;;;5.16;100.00;98904.55;741971;1153;113931;-83
2022/01/28 04:49:53;;;;;;;1.73;1.25;;;;;;;5.18;100.00;98938.20;742463;1155;113769;-81
2022/01/28 05:05:09;;;;;;;1.45;0.95;;;;;;;5.20;100.00;98979.66;741824;1153;114534;-75
2022/01/28 05:35:32;;;;;;;2.70;1.70;;;;;;;4.82;100.00;99045.19;740772;1155;114904;-74
2022/01/28 05:50:35;;;;;;;4.85;1.93;;;;;;;4.71;100.00;99093.80;740923;1153;114641;-81
2022/01/28 06:05:37;;;;;;;4.27;1.80;;;;;;;4.58;100.00;99135.54;742068;1153;115555;-81
2022/01/28 06:20:39;;;;;;;38.20;19.73;;;;;;;4.29;100.00;99180.28;742505;1153;113816;-81
2022/01/28 06:35:47;;;;;;;;;;;;;;;4.06;100.00;99237.41;742341;1154;116410;-82
2022/01/28 06:50:49;;;;;;;11.98;5.98;;;;;;;3.93;100.00;99266.09;742788;1154;101338;-82
2022/01/28 07:05:51;;;;;;;2.93;1.83;;;;;;;3.91;100.00;99319.88;742518;1153;114017;-83
2022/01/28 07:20:53;;;;;;;47.63;20.77;;;;;;;3.91;100.00;99363.98;741848;1155;114471;-74
2022/01/28 07:35:55;;;;;;;99.68;45.73;;;;;;;3.90;100.00;99408.22;741128;1153;114785;-78
2022/01/28 07:50:58;;;;;;;35.78;18.90;;;;;;;4.01;100.00;99470.52;742571;1153;114101;-78
2022/01/28 08:06:00;;;;;;;20.98;9.00;;;;;;;3.98;100.00;99512.28;740428;1155;115647;-76
2022/01/28 08:21:03;;;;;;;17.75;7.60;;;;;;;4.14;100.00;99569.95;740542;1155;114558;-77
2022/01/28 08:36:06;;;;;;;33.47;13.97;;;;;;;4.14;100.00;99585.52;741072;1153;113919;-78
2022/01/28 08:51:08;;;;;;;89.05;26.30;;;;;;;4.15;100.00;99653.84;740894;1153;114902;-77
2022/01/28 09:06:11;;;;;;;76.88;29.13;;;;;;;4.47;100.00;99698.29;740481;1155;114157;-78
2022/01/28 09:21:13;;;;;;;72.20;28.03;;;;;;;4.47;100.00;99733.81;740312;1154;115696;-76
2022/01/28 09:36:16;;;;;;;50.87;25.20;;;;;;;4.24;100.00;99771.80;741214;1154;115086;-77
2022/01/28 09:51:19;;;;;;;84.78;34.20;;;;;;;4.33;100.00;99812.72;740533;1155;115809;-78
2022/01/28 10:06:35;;;;;;;28.70;14.60;;;;;;;4.50;100.00;99834.92;741490;1153;114466;-78
2022/01/28 10:21:39;;;;;;;17.68;7.30;;;;;;;4.94;100.00;99876.90;740565;1155;115642;-79
2022/01/28 10:36:43;;;;;;;24.93;10.73;;;;;;;5.01;100.00;99917.11;740219;1152;113886;-77
2022/01/28 10:51:49;;;;;;;27.30;11.33;;;;;;;5.11;100.00;99935.50;740276;1155;114053;-78
2022/01/28 11:06:56;;;;;;;12.73;6.90;;;;;;;5.23;100.00;99957.21;739954;1153;114101;-79
2022/01/28 11:22:10;;;;;;;29.80;12.03;;;;;;;5.88;100.00;99968.17;740671;1154;114063;-79
2022/01/28 11:37:12;;;;;;;34.95;11.90;;;;;;;5.76;100.00;99988.94;740794;1153;114974;-78
2022/01/28 11:52:25;;;;;;;10.13;5.03;;;;;;;5.01;100.00;100039.30;740595;1154;115262;-78
2022/01/28 12:07:30;;;;;;;5.00;2.60;;;;;;;5.15;100.00;100065.19;740111;1153;115894;-78
2022/01/28 12:22:32;;;;;;;15.68;6.35;;;;;;;5.16;100.00;100092.87;740719;1155;114580;-76
2022/01/28 12:37:47;;;;;;;48.00;25.95;;;;;;;4.80;100.00;100125.63;742747;1155;114085;-76
2022/01/28 12:52:50;;;;;;;25.70;10.90;;;;;;;4.52;100.00;100170.76;740821;1153;115096;-77
2022/01/28 13:23:17;;;;;;;9.40;4.65;;;;;;;4.98;100.00;100242.31;740431;1153;114507;-78
2022/01/28 13:38:20;;;;;;;13.35;5.60;;;;;;;4.92;100.00;100273.91;740176;1153;114320;-77
2022/01/28 14:08:53;;;;;;;78.17;29.80;;;;;;;4.59;100.00;100356.53;742127;1154;114293;-75
2022/01/28 14:23:55;;;;;;;98.68;36.58;;;;;;;4.21;100.00;100390.86;740405;1153;115038;-77
2022/01/28 14:38:58;;;;;;;54.55;24.03;;;;;;;4.11;100.00;100423.48;740594;1153;114446;-76
2022/01/28 14:54:01;;;;;;;19.63;9.73;;;;;;;4.24;100.00;100452.17;740442;1154;115130;-76
2022/01/28 15:09:03;;;;;;;10.40;4.48;;;;;;;4.11;99.24;100491.83;741532;1153;114442;-76
2022/01/28 15:24:06;;;;;;;17.73;6.70;;;;;;;3.83;100.00;100511.57;740134;1155;113922;-75
2022/01/28 15:39:08;;;;;;;21.00;9.03;;;;;;;3.69;100.00;100534.03;740248;1155;115145;-76
2022/01/28 15:54:12;;;;;;;22.00;8.78;;;;;;;3.54;100.00;100559.04;740790;1153;115357;-77
2022/01/28 16:09:14;;;;;;;21.53;7.93;;;;;;;3.42;100.00;100586.47;741107;1153;115432;-75
2022/01/28 16:24:17;;;;;;;17.63;7.40;;;;;;;3.37;100.00;100612.67;740382;1153;115719;-77
2022/01/28 16:39:21;;;;;;;11.77;5.37;;;;;;;3.41;100.00;100642.71;740279;1153;115043;-77
2022/01/28 16:54:23;;;;;;;36.70;10.68;;;;;;;3.43;100.00;100655.59;740467;1153;115420;-77
2022/01/28 17:09:27;;;;;;;29.08;11.50;;;;;;;3.37;100.00;100684.47;741629;1153;130605;-76
2022/01/28 17:24:29;;;;;;;33.87;14.07;;;;;;;3.27;100.00;100702.23;740263;1155;115021;-75
2022/01/28 17:39:45;;;;;;;27.50;13.77;;;;;;;3.38;100.00;100743.17;740670;1153;115383;-76
2022/01/28 17:54:49;;;;;;;32.85;14.55;;;;;;;3.41;100.00;100763.80;740392;1153;115036;-75
2022/01/28 18:09:52;;;;;;;18.43;6.93;;;;;;;3.44;100.00;100784.38;740868;1155;115243;-75
2022/01/28 18:24:55;;;;;;;51.80;17.45;;;;;;;3.40;100.00;100820.00;741189;1155;114067;-74
2022/01/28 18:39:57;;;;;;;71.73;21.77;;;;;;;3.41;100.00;100831.23;740749;1153;115604;-75
2022/01/28 18:55:02;;;;;;;30.25;13.40;;;;;;;3.38;100.00;100832.22;740708;1154;116214;-76
2022/01/28 19:10:06;;;;;;;28.88;10.90;;;;;;;3.40;100.00;100850.30;741026;1155;114361;-75
2022/01/28 19:25:11;;;;;;;28.53;10.80;;;;;;;3.43;100.00;100871.75;740708;1153;115067;-75
2022/01/28 19:40:16;;;;;;;45.25;14.95;;;;;;;3.21;99.44;100884.91;740878;1153;114175;-75
2022/01/28 19:55:19;;;;;;;18.73;7.43;;;;;;;3.21;97.58;100912.57;741339;1153;114469;-76
